createdAt,value
2022-09-15T00:00:31.528Z,11.00
2022-09-15T00:02:58.594Z,10.52
2022-09-15T00:05:25.563Z,11.77
2022-09-15T00:07:52.475Z,9.65
2022-09-15T00:10:19.571Z,11.32
2022-09-15T00:12:46.581Z,8.20
2022-09-15T00:15:14.909Z,8.30
2022-09-15T00:17:43.327Z,12.50
2022-09-15T00:20:10.959Z,11.52
2022-09-15T00:22:38.099Z,13.23
2022-09-15T00:25:06.085Z,7.45
2022-09-15T00:27:33.938Z,11.50
2022-09-15T00:30:01.245Z,10.13
2022-09-15T00:32:29.491Z,10.82
2022-09-15T00:34:56.461Z,17.92
2022-09-15T00:37:23.832Z,11.93
2022-09-15T00:39:50.821Z,9.25
2022-09-15T00:42:22.639Z,10.30
2022-09-15T00:44:54.977Z,9.80
2022-09-15T00:47:33.440Z,9.80
2022-09-15T00:50:06.734Z,7.80
2022-09-15T00:52:43.555Z,11.07
2022-09-15T00:55:20.623Z,7.63
2022-09-15T00:57:53.604Z,10.02
2022-09-15T01:00:24.445Z,12.00
2022-09-15T01:02:51.627Z,9.63
2022-09-15T01:05:29.951Z,8.35
2022-09-15T01:08:01.927Z,10.10
2022-09-15T01:10:34.829Z,9.98
2022-09-15T01:13:06.929Z,10.60
2022-09-15T01:15:57.729Z,11.85
2022-09-15T01:18:36.344Z,12.18
2022-09-15T01:21:20.582Z,12.05
2022-09-15T01:23:59.891Z,8.55
2022-09-15T01:27:06.559Z,7.78
2022-09-15T01:30:07.513Z,9.38
2022-09-15T01:33:04.873Z,8.20
2022-09-15T01:35:52.343Z,8.25
2022-09-15T01:38:56.694Z,12.13
2022-09-15T01:41:47.266Z,11.40
2022-09-15T01:44:16.974Z,12.02
2022-09-15T01:46:47.696Z,9.57
2022-09-15T01:49:20.714Z,12.30
2022-09-15T01:51:50.940Z,10.18
2022-09-15T01:54:22.604Z,8.32
2022-09-15T01:56:49.903Z,10.43
2022-09-15T01:59:16.840Z,9.85
2022-09-15T02:01:51.943Z,10.77
2022-09-15T02:04:46.399Z,9.93
2022-09-15T02:07:31.993Z,10.93
2022-09-15T02:10:20.151Z,10.52
2022-09-15T02:13:00.520Z,9.82
2022-09-15T02:15:43.601Z,12.10
2022-09-15T02:18:14.190Z,11.85
2022-09-15T02:20:49.369Z,10.18
2022-09-15T02:23:40.972Z,10.30
2022-09-15T02:26:11.651Z,12.35
2022-09-15T02:28:41.715Z,10.13
2022-09-15T02:31:13.846Z,11.40
2022-09-15T02:33:47.309Z,7.40
2022-09-15T02:36:17.879Z,12.95
2022-09-15T02:38:50.485Z,12.13
2022-09-15T02:41:17.525Z,10.55
2022-09-15T02:43:49.358Z,9.80
2022-09-15T02:46:20.009Z,10.82
2022-09-15T02:48:47.152Z,11.63
2022-09-15T02:51:16.344Z,11.85
2022-09-15T02:53:44.558Z,11.80
2022-09-15T02:56:11.644Z,6.68
2022-09-15T02:58:38.567Z,11.85
2022-09-15T03:01:07.485Z,10.13
2022-09-15T03:03:34.981Z,8.10
2022-09-15T03:06:17.412Z,9.18
2022-09-15T03:08:49.686Z,7.20
2022-09-15T03:11:18.305Z,8.57
2022-09-15T03:13:45.923Z,8.68
2022-09-15T03:16:15.104Z,12.25
2022-09-15T03:18:42.415Z,9.15
2022-09-15T03:21:11.869Z,10.57
2022-09-15T03:23:39.457Z,8.73
2022-09-15T03:26:07.879Z,11.27
2022-09-15T03:28:36.125Z,10.25
2022-09-15T03:31:03.624Z,8.10
2022-09-15T03:33:30.758Z,10.30
2022-09-15T03:35:58.344Z,12.45
2022-09-15T03:38:26.048Z,11.38
2022-09-15T03:41:09.714Z,12.55
2022-09-15T03:43:37.646Z,9.93
2022-09-15T03:46:06.841Z,11.30
2022-09-15T03:48:35.759Z,12.07
2022-09-15T03:51:04.631Z,10.30
2022-09-15T03:53:39.698Z,10.90
2022-09-15T03:56:28.119Z,11.07
2022-09-15T03:58:55.127Z,10.68
2022-09-15T04:01:23.093Z,10.45
2022-09-15T04:03:51.636Z,10.30
2022-09-15T04:06:20.916Z,12.85
2022-09-15T04:08:49.129Z,10.93
2022-09-15T04:11:17.782Z,10.85
2022-09-15T04:13:45.189Z,12.68
2022-09-15T04:16:15.096Z,13.60
2022-09-15T04:18:42.129Z,14.73
2022-09-15T04:21:13.332Z,11.73
2022-09-15T04:23:41.626Z,10.80
2022-09-15T04:26:14.898Z,11.88
2022-09-15T04:28:41.859Z,13.80
2022-09-15T04:31:11.772Z,12.85
2022-09-15T04:33:40.575Z,13.77
2022-09-15T04:36:11.007Z,12.27
2022-09-15T04:38:38.783Z,11.82
2022-09-15T04:41:06.681Z,9.48
2022-09-15T04:43:33.954Z,11.30
2022-09-15T04:46:00.985Z,13.60
2022-09-15T04:48:28.486Z,10.55
2022-09-15T04:51:08.105Z,13.82
2022-09-15T04:53:36.890Z,13.60
2022-09-15T04:56:04.055Z,10.85
2022-09-15T04:58:34.919Z,13.73
2022-09-15T05:01:10.773Z,13.20
2022-09-15T05:03:38.414Z,10.10
2022-09-15T05:06:11.553Z,9.13
2022-09-15T05:08:39.151Z,13.70
2022-09-15T05:11:11.898Z,14.90
2022-09-15T05:13:39.710Z,12.50
2022-09-15T05:16:14.098Z,11.85
2022-09-15T05:18:42.596Z,13.88
2022-09-15T05:21:11.109Z,10.98
2022-09-15T05:23:38.319Z,11.48
2022-09-15T05:26:08.859Z,13.45
2022-09-15T05:28:37.528Z,12.95
2022-09-15T05:31:10.407Z,12.40
2022-09-15T05:33:37.589Z,13.18
2022-09-15T05:36:05.210Z,15.73
2022-09-15T05:38:33.042Z,12.07
2022-09-15T05:41:12.731Z,15.27
2022-09-15T05:43:39.924Z,15.18
2022-09-15T05:46:07.963Z,10.77
2022-09-15T05:48:35.248Z,15.02
2022-09-15T05:51:03.332Z,15.43
2022-09-15T05:53:31.115Z,12.27
2022-09-15T05:56:05.185Z,12.02
2022-09-15T05:58:32.626Z,15.23
2022-09-15T06:01:14.259Z,13.80
2022-09-15T06:03:41.348Z,13.55
2022-09-15T06:06:08.544Z,12.80
2022-09-15T06:08:39.667Z,14.10
2022-09-15T06:11:15.595Z,17.23
2022-09-15T06:13:43.312Z,12.85
2022-09-15T06:16:15.523Z,13.68
2022-09-15T06:18:42.583Z,14.23
2022-09-15T06:21:16.468Z,11.70
2022-09-15T06:23:47.250Z,13.70
2022-09-15T06:26:18.974Z,15.75
2022-09-15T06:28:51.518Z,14.27
2022-09-15T06:31:19.322Z,12.20
2022-09-15T06:33:48.451Z,14.60
2022-09-15T06:36:16.616Z,13.07
2022-09-15T06:38:44.530Z,19.05
2022-09-15T06:41:12.566Z,17.15
2022-09-15T06:43:40.252Z,18.35
2022-09-15T06:46:10.119Z,15.88
2022-09-15T06:48:38.327Z,15.32
2022-09-15T06:51:06.576Z,13.40
2022-09-15T06:53:36.079Z,18.35
2022-09-15T06:56:04.196Z,18.60
2022-09-15T06:58:32.292Z,15.45
2022-09-15T07:01:04.506Z,16.13
2022-09-15T07:03:31.885Z,16.75
2022-09-15T07:05:58.944Z,18.27
2022-09-15T07:08:25.842Z,16.10
2022-09-15T07:10:52.840Z,22.20
2022-09-15T07:13:19.739Z,16.30
2022-09-15T07:15:54.045Z,18.60
2022-09-15T07:18:21.782Z,19.77
2022-09-15T07:20:49.223Z,13.93
2022-09-15T07:23:16.823Z,16.25
2022-09-15T07:25:44.960Z,17.90
2022-09-15T07:28:15.796Z,19.00
2022-09-15T07:30:43.944Z,14.25
2022-09-15T07:33:12.957Z,14.13
2022-09-15T07:35:43.963Z,15.35
2022-09-15T07:38:11.414Z,15.65
2022-09-15T07:40:38.619Z,20.27
2022-09-15T07:43:06.553Z,17.13
2022-09-15T07:45:35.588Z,15.45
2022-09-15T07:48:02.870Z,14.38
2022-09-15T07:50:29.930Z,19.65
2022-09-15T07:52:57.246Z,12.48
2022-09-15T07:55:24.923Z,11.88
2022-09-15T07:58:00.522Z,16.15
2022-09-15T08:00:28.053Z,32.83
2022-09-15T08:02:55.420Z,12.77
2022-09-15T08:05:28.065Z,17.02
2022-09-15T08:07:56.124Z,15.18
2022-09-15T08:10:25.144Z,14.15
2022-09-15T08:12:52.923Z,20.85
2022-09-15T08:15:20.603Z,12.57
2022-09-15T08:17:47.678Z,16.90
2022-09-15T08:20:14.785Z,12.77
2022-09-15T08:22:42.175Z,12.73
2022-09-15T08:25:09.671Z,12.50
2022-09-15T08:27:36.620Z,13.30
2022-09-15T08:30:04.544Z,14.70
2022-09-15T08:32:31.533Z,12.57
2022-09-15T08:34:58.495Z,18.77
2022-09-15T08:37:25.472Z,16.15
2022-09-15T08:39:52.473Z,14.00
2022-09-15T08:42:21.986Z,18.15
2022-09-15T08:44:55.917Z,18.42
2022-09-15T08:47:33.496Z,13.23
2022-09-15T08:50:18.538Z,16.27
2022-09-15T08:52:51.373Z,13.70
2022-09-15T08:55:27.826Z,10.23
2022-09-15T08:57:55.004Z,25.58
2022-09-15T09:00:21.953Z,12.05
2022-09-15T09:03:03.840Z,14.98
2022-09-15T09:05:52.065Z,12.02
2022-09-15T09:09:04.213Z,13.30
2022-09-15T09:11:42.800Z,12.80
2022-09-15T09:14:29.970Z,13.77
2022-09-15T09:17:25.493Z,13.00
2022-09-15T09:20:15.471Z,10.57
2022-09-15T09:22:46.359Z,10.68
2022-09-15T09:25:27.267Z,11.68
2022-09-15T09:27:58.163Z,11.38
2022-09-15T09:30:28.956Z,12.73
2022-09-15T09:33:18.374Z,12.93
2022-09-15T09:35:49.011Z,13.07
2022-09-15T09:38:27.267Z,10.32
2022-09-15T09:40:56.602Z,13.88
2022-09-15T09:43:29.153Z,8.73
2022-09-15T09:45:56.491Z,9.95
2022-09-15T09:48:26.031Z,10.48
2022-09-15T09:50:53.383Z,10.77
2022-09-15T09:53:32.991Z,9.98
2022-09-15T09:56:11.986Z,8.13
2022-09-15T09:58:38.960Z,10.88
2022-09-15T10:01:14.880Z,12.25
2022-09-15T10:03:43.328Z,11.88
2022-09-15T10:06:20.684Z,10.35
2022-09-15T10:09:05.718Z,11.30
2022-09-15T10:11:51.469Z,8.75
2022-09-15T10:14:27.778Z,12.52
2022-09-15T10:17:07.467Z,9.52
2022-09-15T10:19:47.746Z,9.77
2022-09-15T10:22:33.465Z,11.35
2022-09-15T10:25:02.604Z,12.27
2022-09-15T10:27:34.592Z,12.43
2022-09-15T10:30:14.525Z,10.77
2022-09-15T10:32:43.224Z,10.10
2022-09-15T10:35:14.321Z,7.95
2022-09-15T10:38:00.117Z,6.97
2022-09-15T10:40:48.241Z,9.70
2022-09-15T10:43:25.743Z,10.05
2022-09-15T10:46:25.203Z,10.50
2022-09-15T10:49:17.016Z,11.88
2022-09-15T10:51:53.146Z,10.57
2022-09-15T10:54:22.969Z,9.35
2022-09-15T10:56:56.294Z,12.00
2022-09-15T10:59:23.209Z,6.72
2022-09-15T11:02:14.978Z,7.93
2022-09-15T11:04:42.157Z,7.60
2022-09-15T11:07:19.347Z,8.55
2022-09-15T11:09:52.971Z,9.85
2022-09-15T11:12:20.054Z,8.77
2022-09-15T11:15:07.321Z,7.47
2022-09-15T11:17:39.500Z,9.40
2022-09-15T11:20:25.357Z,8.70
2022-09-15T11:23:09.491Z,8.68
2022-09-15T11:25:43.528Z,7.63
2022-09-15T11:28:44.651Z,10.63
2022-09-15T11:31:38.777Z,10.90
2022-09-15T11:34:43.910Z,8.95
2022-09-15T11:37:24.090Z,7.82
2022-09-15T11:40:04.873Z,10.25
2022-09-15T11:42:46.609Z,9.98
2022-09-15T11:45:19.950Z,10.80
2022-09-15T11:47:55.916Z,11.07
2022-09-15T11:50:34.954Z,10.55
2022-09-15T11:53:08.951Z,6.85
2022-09-15T11:55:58.435Z,11.68
2022-09-15T11:58:34.567Z,7.97
2022-09-15T12:01:10.331Z,9.48
2022-09-15T12:04:08.926Z,7.88
2022-09-15T12:06:50.861Z,7.90
2022-09-15T12:09:20.274Z,9.68
2022-09-15T12:11:56.957Z,9.95
2022-09-15T12:14:37.820Z,8.65
2022-09-15T12:17:06.547Z,11.90
2022-09-15T12:19:33.567Z,10.60
2022-09-15T12:22:31.963Z,10.38
2022-09-15T12:25:20.054Z,14.10
2022-09-15T12:28:24.068Z,12.18
2022-09-15T12:31:26.410Z,6.70
2022-09-15T12:34:27.040Z,8.43
2022-09-15T12:36:55.653Z,7.38
2022-09-15T12:39:39.882Z,11.00
2022-09-15T12:42:14.967Z,8.63
2022-09-15T12:44:47.838Z,10.88
2022-09-15T12:47:22.866Z,6.50
2022-09-15T12:49:51.514Z,12.23
2022-09-15T12:52:22.458Z,9.80
2022-09-15T12:54:57.598Z,10.18
2022-09-15T12:57:36.319Z,16.00
2022-09-15T13:00:31.496Z,7.75
2022-09-15T13:02:58.680Z,7.67
2022-09-15T13:05:46.083Z,7.97
2022-09-15T13:08:36.097Z,10.05
2022-09-15T13:11:12.627Z,9.30
2022-09-15T13:13:48.342Z,8.48
2022-09-15T13:16:43.694Z,9.50
2022-09-15T13:19:23.787Z,10.15
2022-09-15T13:22:11.325Z,10.35
2022-09-15T13:24:47.244Z,13.45
2022-09-15T13:27:21.536Z,10.90
2022-09-15T13:30:09.994Z,13.67
2022-09-15T13:32:49.011Z,16.67
2022-09-15T13:35:27.712Z,8.70
2022-09-15T13:38:26.496Z,7.97
2022-09-15T13:41:34.856Z,10.23
2022-09-15T13:44:23.297Z,8.80
2022-09-15T13:47:18.069Z,8.07
2022-09-15T13:49:56.817Z,9.68
2022-09-15T13:52:59.632Z,7.03
2022-09-15T13:55:34.053Z,6.22
2022-09-15T14:01:08.585Z,8.10
2022-09-15T14:03:48.251Z,7.00
2022-09-15T14:06:25.922Z,7.05
2022-09-15T14:08:58.820Z,8.45
2022-09-15T14:11:30.721Z,7.97
2022-09-15T14:13:59.271Z,8.95
2022-09-15T14:16:37.178Z,6.97
2022-09-15T14:19:28.974Z,7.15
2022-09-15T14:21:58.535Z,9.23
2022-09-15T14:24:29.545Z,6.03
2022-09-15T14:27:01.290Z,8.25
2022-09-15T14:29:28.359Z,10.85
2022-09-15T14:32:01.359Z,14.05
2022-09-15T14:34:32.973Z,8.57
2022-09-15T14:37:14.899Z,8.80
2022-09-15T14:39:49.783Z,7.78
2022-09-15T14:47:38.103Z,6.72
2022-09-15T14:50:21.578Z,7.32
2022-09-15T14:52:52.876Z,5.53
2022-09-15T14:55:28.249Z,4.95
2022-09-15T14:58:02.394Z,8.07
2022-09-15T15:00:34.598Z,7.13
2022-09-15T15:03:16.142Z,5.30
2022-09-15T15:06:02.613Z,7.70
2022-09-15T15:08:37.483Z,5.13
2022-09-15T15:11:07.936Z,8.35
2022-09-15T15:13:37.622Z,12.60
2022-09-15T15:16:19.055Z,5.47
2022-09-15T15:18:46.327Z,5.47
2022-09-15T15:21:38.332Z,4.53
2022-09-15T15:24:15.189Z,6.60
2022-09-15T15:26:44.946Z,5.88
2022-09-15T15:29:43.227Z,7.57
2022-09-15T15:32:36.773Z,5.30
2022-09-15T15:35:04.078Z,4.97
2022-09-15T15:37:33.843Z,8.48
2022-09-15T15:40:07.380Z,5.95
2022-09-15T15:42:34.792Z,4.90
2022-09-15T15:45:23.829Z,6.90
2022-09-15T15:47:51.183Z,8.38
2022-09-15T15:50:20.899Z,6.50
2022-09-15T15:52:52.099Z,7.15
2022-09-15T15:55:24.256Z,4.80
2022-09-15T15:57:54.294Z,3.33
2022-09-15T16:00:40.802Z,4.80
2022-09-15T16:03:09.089Z,5.20
2022-09-15T16:05:37.275Z,6.30
2022-09-15T16:08:23.472Z,6.07
2022-09-15T16:10:51.483Z,6.50
2022-09-15T16:13:20.750Z,6.63
2022-09-15T16:15:48.230Z,6.78
2022-09-15T16:18:15.782Z,6.72
2022-09-15T16:20:43.268Z,6.47
2022-09-15T16:23:15.499Z,7.15
2022-09-15T16:25:47.452Z,6.93
2022-09-15T16:28:14.564Z,4.90
2022-09-15T16:30:41.663Z,5.00
2022-09-15T16:33:15.522Z,10.13
2022-09-15T16:35:51.018Z,5.00
2022-09-15T16:38:20.093Z,6.38
2022-09-15T16:40:48.465Z,5.05
2022-09-15T16:43:19.314Z,7.72
2022-09-15T16:45:46.531Z,5.90
2022-09-15T16:48:13.897Z,8.18
2022-09-15T16:50:50.523Z,8.02
2022-09-15T16:53:26.599Z,6.35
2022-09-15T16:55:57.421Z,5.80
2022-09-15T16:58:24.449Z,8.57
2022-09-15T17:00:52.769Z,10.35
2022-09-15T17:03:23.848Z,5.80
2022-09-15T17:05:56.384Z,6.43
2022-09-15T17:08:27.314Z,5.78
2022-09-15T17:10:56.899Z,5.65
2022-09-15T17:13:29.291Z,6.72
2022-09-15T17:15:58.553Z,7.40
2022-09-15T17:18:26.523Z,6.55
2022-09-15T17:20:54.080Z,5.63
2022-09-15T17:23:21.033Z,6.25
2022-09-15T17:25:53.970Z,6.57
2022-09-15T17:28:22.773Z,7.13
2022-09-15T17:30:57.028Z,4.63
2022-09-15T17:33:24.816Z,9.68
2022-09-15T17:35:52.189Z,5.22
2022-09-15T17:38:21.623Z,8.38
2022-09-15T17:40:50.427Z,6.10
2022-09-15T17:43:19.604Z,5.55
2022-09-15T17:45:47.805Z,8.25
2022-09-15T17:48:14.960Z,8.85
2022-09-15T17:50:42.558Z,6.90
2022-09-15T17:53:24.086Z,11.52
2022-09-15T17:55:51.194Z,6.60
2022-09-15T17:58:18.386Z,5.90
2022-09-15T18:00:47.595Z,5.35
2022-09-15T18:03:34.024Z,9.88
2022-09-15T18:06:05.152Z,8.80
2022-09-15T18:08:33.203Z,8.68
2022-09-15T18:11:00.807Z,7.90
2022-09-15T18:13:29.911Z,6.78
2022-09-15T18:15:57.972Z,9.63
2022-09-15T18:18:27.179Z,10.85
2022-09-15T18:20:57.800Z,7.45
2022-09-15T18:23:28.303Z,9.63
2022-09-15T18:25:55.354Z,6.93
2022-09-15T18:28:22.478Z,11.00
2022-09-15T18:30:50.555Z,7.93
2022-09-15T18:33:21.091Z,8.95
2022-09-15T18:35:50.091Z,9.15
2022-09-15T18:38:17.824Z,9.07
2022-09-15T18:40:50.922Z,12.77
2022-09-15T18:43:18.049Z,7.82
2022-09-15T18:45:45.140Z,8.68
2022-09-15T18:48:13.071Z,10.60
2022-09-15T18:50:41.696Z,9.25
2022-09-15T18:53:09.399Z,6.07
2022-09-15T18:55:36.393Z,8.60
2022-09-15T18:58:03.504Z,12.38
2022-09-15T19:00:31.725Z,11.25
2022-09-15T19:03:00.933Z,7.10
2022-09-15T19:05:29.510Z,7.63
2022-09-15T19:07:57.140Z,10.60
2022-09-15T19:10:26.557Z,8.10
2022-09-15T19:12:54.486Z,10.18
2022-09-15T19:15:24.438Z,11.25
2022-09-15T19:17:51.507Z,10.15
2022-09-15T19:20:18.513Z,8.15
2022-09-15T19:22:46.108Z,7.88
2022-09-15T19:25:13.588Z,9.00
2022-09-15T19:27:41.197Z,8.77
2022-09-15T19:30:12.675Z,6.97
2022-09-15T19:32:40.589Z,8.88
2022-09-15T19:35:08.711Z,7.40
2022-09-15T19:37:38.287Z,7.68
2022-09-15T19:40:09.692Z,8.60
2022-09-15T19:42:38.564Z,8.32
2022-09-15T19:45:06.639Z,11.68
2022-09-15T19:47:34.089Z,9.05
2022-09-15T19:50:01.305Z,8.25
2022-09-15T19:52:28.576Z,9.10
2022-09-15T19:54:55.477Z,8.05
2022-09-15T19:57:22.810Z,7.85
2022-09-15T19:59:50.452Z,8.63
2022-09-15T20:02:17.573Z,6.53
2022-09-15T20:07:29.332Z,12.60
2022-09-15T20:09:56.183Z,8.30
2022-09-15T20:12:24.704Z,14.48
2022-09-15T20:14:51.837Z,8.52
2022-09-15T20:17:19.005Z,7.78
2022-09-15T20:19:45.898Z,9.95
2022-09-15T20:22:12.890Z,8.77
2022-09-15T20:24:40.271Z,12.75
2022-09-15T20:27:08.836Z,8.43
2022-09-15T20:29:35.869Z,8.75
2022-09-15T20:32:02.950Z,8.43
2022-09-15T20:34:29.909Z,10.93
2022-09-15T20:36:57.032Z,14.30
2022-09-15T20:39:24.880Z,9.45
2022-09-15T20:41:51.956Z,9.30
2022-09-15T20:44:19.021Z,8.52
2022-09-15T20:46:45.939Z,7.78
2022-09-15T20:49:12.864Z,6.45
2022-09-15T20:51:40.142Z,12.35
2022-09-15T20:54:07.087Z,9.20
2022-09-15T20:56:35.472Z,12.77
2022-09-15T20:59:04.421Z,12.20
2022-09-15T21:01:39.288Z,11.05
2022-09-15T21:04:08.455Z,9.43
2022-09-15T21:06:35.897Z,11.55
2022-09-15T21:09:04.393Z,12.32
2022-09-15T21:11:31.718Z,10.15
2022-09-15T21:13:58.909Z,9.60
2022-09-15T21:16:28.183Z,14.27
2022-09-15T21:18:57.671Z,10.27
2022-09-15T21:21:26.829Z,13.05
2022-09-15T21:23:56.239Z,12.07
2022-09-15T21:26:28.616Z,9.13
2022-09-15T21:28:57.241Z,10.07
2022-09-15T21:31:29.999Z,10.80
2022-09-15T21:33:58.170Z,10.88
2022-09-15T21:36:26.942Z,9.98
2022-09-15T21:38:56.415Z,12.80
2022-09-15T21:41:26.052Z,11.43
2022-09-15T21:43:54.934Z,11.50
2022-09-15T21:46:31.940Z,12.27
2022-09-15T21:49:00.040Z,13.18
2022-09-15T21:51:28.759Z,13.35
2022-09-15T21:53:57.771Z,10.18
2022-09-15T21:56:25.966Z,13.35
2022-09-15T21:58:54.248Z,10.63
2022-09-15T22:01:22.723Z,12.75
2022-09-15T22:03:56.917Z,9.55
2022-09-15T22:06:31.510Z,14.60
2022-09-15T22:09:04.318Z,10.63
2022-09-15T22:11:32.248Z,9.25
2022-09-15T22:14:01.745Z,10.70
2022-09-15T22:16:29.210Z,10.30
2022-09-15T22:18:56.498Z,12.00
2022-09-15T22:21:26.454Z,11.93
2022-09-15T22:23:58.399Z,13.48
2022-09-15T22:26:28.225Z,10.45
2022-09-15T22:28:55.987Z,11.43
2022-09-15T22:31:24.196Z,12.68
2022-09-15T22:33:51.897Z,13.65
2022-09-15T22:36:24.062Z,12.32
2022-09-15T22:38:54.357Z,11.40
2022-09-15T22:41:25.212Z,13.55
2022-09-15T22:43:52.241Z,9.75
2022-09-15T22:46:19.678Z,12.25
2022-09-15T22:48:46.891Z,9.98
2022-09-15T22:51:14.818Z,10.55
2022-09-15T22:53:42.529Z,11.68
2022-09-15T22:56:19.883Z,11.90
2022-09-15T22:58:48.879Z,12.55
2022-09-15T23:01:22.112Z,13.45
2022-09-15T23:03:53.590Z,10.85
2022-09-15T23:06:21.819Z,13.68
2022-09-15T23:08:53.717Z,14.00
2022-09-15T23:11:21.590Z,13.95
2022-09-15T23:13:49.385Z,12.70
2022-09-15T23:16:17.258Z,10.93
2022-09-15T23:18:44.511Z,11.73
2022-09-15T23:21:12.675Z,13.68
2022-09-15T23:23:41.481Z,12.02
2022-09-15T23:26:11.340Z,10.60
2022-09-15T23:28:39.810Z,11.95
2022-09-15T23:31:07.427Z,14.23
2022-09-15T23:33:34.708Z,11.23
2022-09-15T23:36:04.117Z,10.70
2022-09-15T23:38:34.412Z,9.95
2022-09-15T23:41:01.404Z,9.32
2022-09-15T23:43:28.316Z,14.40
2022-09-15T23:45:55.263Z,10.32
2022-09-15T23:48:23.357Z,14.60
2022-09-15T23:50:50.436Z,11.23
2022-09-15T23:53:18.345Z,12.05
2022-09-15T23:55:46.286Z,9.82
2022-09-15T23:58:13.577Z,8.93
